Strona główna
METAR-TAF:

METAR-TAF

Lotnisko :

Colmenar Viejo, Hiszpania

Szerokość geograficzna: 40-39N, Długość geograficzna: 003-44W, wysokość: -999 m

Aktualna obserwacja pogody

Raport powstał 39 minut temu, godzina 17:00 UTC
Wiatr 3 kt od północny wschód
Temperatura 31°C
Wilgotność 31%
Ciśnienie 1011 hPa
Widzialność 10 km lub więcej
Mało chmury na wysokości 5000 ft, Cumulusy wypiętrznone.
Rozproszone chmury na wysokości 6000 ft

METAR: LECV 251700Z 04003KT 9999 FEW050TCU SCT060 31/12 Q1011

czas: 19:39 (17:39 UTC)

Prognoza

Raport powstał 39 minut temu, godzina 17:00 UTC
Prognoza ważna od 25 godzina 18 UTC do 26 godzina 18 UTC
Wiatr 5 kt od północno-północny wschód
Widzialność 10 km lub więcej
Brak chmur poniżej 1500 m i brak chmur cumulonimbus
Przejściowo
od 26 godzina 13 UTC do 26 godzina 18 UTC
Wiatr 10 kt od zachód

TAF: LECV 251700Z 2518/2618 03005KT CAVOK TX31/2615Z TN20/2606Z TEMPO 2613/2618 27010KT

Obserwacja i prognoza pogody dla ponad 4000 lotnisk (raport METAR i TAF).

Dostępne stacje oznaczono żółtymi i czerwonymi punktami na mapie.

Najedź kursorem aby zobaczyć nazwę stacji.

Kliknij aby zobaczyć obserwacje i prognozy pogody.

Aby zmienić mapę: kliknij na zielony przycisk z czarnym krzyżykiem, aby powiększyć; na zielony przycisk z myślnikiem, aby pomniejszyć; na zielone strzałki, aby przejść do map sąsiednich.


METAR-TAF: